createdAt,value
2019-03-23T00:00:00.476Z,6.83
2019-03-23T00:02:29.012Z,5.80
2019-03-23T00:04:57.505Z,7.83
2019-03-23T00:07:26.080Z,6.13
2019-03-23T00:09:54.679Z,5.17
2019-03-23T00:12:23.256Z,5.30
2019-03-23T00:14:51.834Z,5.30
2019-03-23T00:17:20.404Z,6.27
2019-03-23T00:19:49.141Z,6.33
2019-03-23T00:22:17.770Z,6.17
2019-03-23T00:24:46.284Z,5.63
2019-03-23T00:27:14.936Z,5.60
2019-03-23T00:29:43.642Z,6.03
2019-03-23T00:32:12.264Z,7.17
2019-03-23T00:34:40.946Z,6.47
2019-03-23T00:37:09.603Z,6.07
2019-03-23T00:39:38.157Z,5.50
2019-03-23T00:42:06.725Z,6.00
2019-03-23T00:44:35.294Z,5.47
2019-03-23T00:47:03.944Z,5.50
2019-03-23T00:49:32.502Z,5.00
2019-03-23T00:52:01.130Z,5.83
2019-03-23T00:54:29.896Z,4.70
2019-03-23T00:56:58.372Z,5.20
2019-03-23T00:59:27.025Z,5.03
2019-03-23T01:01:55.624Z,5.93
2019-03-23T01:04:24.296Z,5.13
2019-03-23T01:06:52.933Z,5.20
2019-03-23T01:09:21.504Z,6.10
2019-03-23T01:11:50.062Z,5.80
2019-03-23T01:14:18.754Z,8.43
2019-03-23T01:16:47.226Z,5.67
2019-03-23T01:19:15.940Z,5.83
2019-03-23T01:21:44.650Z,8.60
2019-03-23T01:24:13.258Z,5.30
2019-03-23T01:26:41.875Z,6.30
2019-03-23T01:29:10.563Z,6.80
2019-03-23T01:31:39.291Z,5.53
2019-03-23T01:34:08.022Z,5.97
2019-03-23T01:36:36.630Z,5.63
2019-03-23T01:39:07.218Z,5.70
2019-03-23T01:41:35.763Z,6.10
2019-03-23T01:44:05.009Z,5.57
2019-03-23T01:46:33.730Z,5.50
2019-03-23T01:49:02.437Z,5.83
2019-03-23T01:51:30.991Z,4.90
2019-03-23T01:53:59.453Z,5.57
2019-03-23T01:56:28.021Z,5.33
2019-03-23T01:58:56.628Z,4.83
2019-03-23T02:01:25.134Z,6.53
2019-03-23T02:03:53.710Z,5.23
2019-03-23T02:06:22.295Z,5.03
2019-03-23T02:08:51.054Z,4.90
2019-03-23T02:11:19.666Z,5.13
2019-03-23T02:13:48.459Z,6.13
2019-03-23T02:16:16.966Z,5.77
2019-03-23T02:18:45.673Z,5.13
2019-03-23T02:21:14.145Z,5.10
2019-03-23T02:23:42.829Z,5.23
2019-03-23T02:26:11.490Z,7.60
2019-03-23T02:28:40.248Z,5.20
2019-03-23T02:31:09.204Z,6.03
2019-03-23T02:33:37.968Z,6.27
2019-03-23T02:36:06.645Z,6.83
2019-03-23T02:38:35.275Z,6.73
2019-03-23T02:41:03.952Z,6.70
2019-03-23T02:43:32.603Z,6.73
2019-03-23T02:46:01.595Z,6.93
2019-03-23T02:48:30.376Z,6.67
2019-03-23T02:50:59.015Z,7.27
2019-03-23T02:53:27.594Z,6.83
2019-03-23T02:55:56.204Z,7.17
2019-03-23T02:58:24.744Z,7.67
2019-03-23T03:00:53.332Z,5.60
2019-03-23T03:03:21.803Z,6.50
2019-03-23T03:05:50.251Z,5.90
2019-03-23T03:08:18.733Z,6.10
2019-03-23T03:10:47.574Z,5.43
2019-03-23T03:13:16.045Z,5.60
2019-03-23T03:15:44.566Z,5.20
2019-03-23T03:18:13.159Z,5.13
2019-03-23T03:20:41.693Z,6.27
2019-03-23T03:23:10.445Z,6.30
2019-03-23T03:25:39.036Z,6.07
2019-03-23T03:28:07.805Z,5.73
2019-03-23T03:30:36.493Z,6.70
2019-03-23T03:33:05.066Z,5.80
2019-03-23T03:35:33.729Z,6.33
2019-03-23T03:38:02.243Z,6.63
2019-03-23T03:40:30.712Z,6.77
2019-03-23T03:42:59.266Z,7.23
2019-03-23T03:45:29.492Z,6.77
2019-03-23T03:47:58.163Z,6.43
2019-03-23T03:50:26.877Z,7.10
2019-03-23T03:52:55.506Z,7.43
2019-03-23T03:55:24.210Z,7.60
2019-03-23T03:57:52.861Z,6.87
2019-03-23T04:00:21.398Z,6.50
2019-03-23T04:02:49.860Z,5.43
2019-03-23T04:05:18.677Z,5.90
2019-03-23T04:07:47.265Z,5.77
2019-03-23T04:10:15.837Z,5.60
2019-03-23T04:12:44.598Z,5.60
2019-03-23T04:15:13.161Z,5.10
2019-03-23T04:17:41.733Z,8.73
2019-03-23T04:20:11.173Z,4.83
2019-03-23T04:22:40.028Z,7.33
2019-03-23T04:25:10.309Z,5.40
2019-03-23T04:27:39.067Z,5.13
2019-03-23T04:30:09.937Z,5.60
2019-03-23T04:32:38.679Z,6.77
2019-03-23T04:35:08.086Z,4.83
2019-03-23T04:37:36.789Z,5.30
2019-03-23T04:40:07.962Z,5.30
2019-03-23T04:42:36.663Z,5.73
2019-03-23T04:45:07.736Z,6.77
2019-03-23T04:47:36.443Z,5.73
2019-03-23T04:50:12.137Z,5.83
2019-03-23T04:52:40.982Z,5.63
2019-03-23T04:55:13.935Z,5.87
2019-03-23T04:57:42.563Z,6.80
2019-03-23T05:00:19.238Z,6.20
2019-03-23T05:02:47.859Z,8.07
2019-03-23T05:05:16.768Z,5.37
2019-03-23T05:07:45.897Z,5.60
2019-03-23T05:10:15.084Z,5.00
2019-03-23T05:12:43.557Z,6.40
2019-03-23T05:15:13.083Z,7.07
2019-03-23T05:17:41.868Z,5.93
2019-03-23T05:20:12.698Z,6.03
2019-03-23T05:22:41.342Z,5.57
2019-03-23T05:25:12.975Z,5.93
2019-03-23T05:27:41.526Z,6.40
2019-03-23T05:30:10.436Z,6.00
2019-03-23T05:32:39.013Z,6.83
2019-03-23T05:35:07.716Z,6.47
2019-03-23T05:37:36.427Z,6.80
2019-03-23T05:40:07.340Z,6.97
2019-03-23T05:42:36.230Z,6.33
2019-03-23T05:45:06.848Z,6.30
2019-03-23T05:47:35.390Z,6.20
2019-03-23T05:50:06.072Z,6.67
2019-03-23T05:52:34.750Z,6.80
2019-03-23T05:55:03.634Z,5.73
2019-03-23T05:57:32.251Z,6.50
2019-03-23T06:00:00.914Z,7.17
2019-03-23T06:02:29.571Z,6.50
2019-03-23T06:04:58.333Z,6.97
2019-03-23T06:07:26.973Z,6.17
2019-03-23T06:09:55.613Z,6.50
2019-03-23T06:12:24.085Z,7.80
2019-03-23T06:14:52.784Z,7.60
2019-03-23T06:17:21.494Z,7.07
2019-03-23T06:19:50.144Z,6.83
2019-03-23T06:22:18.774Z,6.63
2019-03-23T06:24:47.296Z,6.33
2019-03-23T06:27:15.747Z,6.30
2019-03-23T06:29:44.384Z,7.13
2019-03-23T06:32:12.921Z,6.57
2019-03-23T06:34:41.664Z,6.60
2019-03-23T06:37:10.149Z,6.27
2019-03-23T06:39:38.986Z,6.87
2019-03-23T06:42:07.520Z,6.40
2019-03-23T06:44:36.159Z,7.00
2019-03-23T06:47:04.948Z,6.83
2019-03-23T06:49:33.545Z,6.97
2019-03-23T06:52:02.026Z,6.93
2019-03-23T06:54:30.694Z,8.63
2019-03-23T06:56:59.275Z,7.63
2019-03-23T06:59:27.970Z,7.37
2019-03-23T07:01:56.594Z,7.60
2019-03-23T07:04:26.742Z,6.87
2019-03-23T07:06:55.560Z,6.53
2019-03-23T07:09:24.403Z,6.90
2019-03-23T07:11:52.982Z,7.00
2019-03-23T07:14:21.636Z,7.50
2019-03-23T07:16:50.305Z,7.10
2019-03-23T07:19:21.489Z,7.50
2019-03-23T07:21:50.241Z,7.40
2019-03-23T07:24:18.914Z,7.03
2019-03-23T07:26:47.583Z,7.07
2019-03-23T07:29:16.246Z,6.60
2019-03-23T07:31:44.834Z,7.70
2019-03-23T07:34:13.608Z,9.17
2019-03-23T07:36:42.254Z,7.47
2019-03-23T07:39:11.314Z,7.77
2019-03-23T07:41:39.884Z,7.10
2019-03-23T07:44:08.653Z,7.90
2019-03-23T07:46:37.303Z,7.93
2019-03-23T07:49:06.671Z,6.93
2019-03-23T07:51:35.406Z,7.30
2019-03-23T07:54:04.006Z,6.93
2019-03-23T07:56:32.585Z,7.23
2019-03-23T07:59:01.186Z,9.10
2019-03-23T08:01:30.148Z,9.33
2019-03-23T08:03:58.858Z,9.73
2019-03-23T08:06:27.630Z,10.33
2019-03-23T08:08:56.227Z,8.77
2019-03-23T08:11:25.026Z,9.63
2019-03-23T08:13:53.753Z,9.30
2019-03-23T08:16:22.324Z,9.33
2019-03-23T08:18:51.403Z,9.03
2019-03-23T08:21:19.946Z,8.27
2019-03-23T08:23:48.383Z,9.83
2019-03-23T08:26:17.205Z,9.13
2019-03-23T08:28:46.134Z,9.27
2019-03-23T08:31:14.964Z,11.60
2019-03-23T08:33:43.457Z,11.87
2019-03-23T08:36:12.550Z,10.17
2019-03-23T08:38:41.573Z,9.13
2019-03-23T08:41:10.189Z,10.03
2019-03-23T08:43:39.143Z,10.20
2019-03-23T08:46:07.842Z,11.60
2019-03-23T08:48:36.721Z,10.90
2019-03-23T08:51:05.786Z,11.07
2019-03-23T08:53:34.994Z,10.60
2019-03-23T08:56:04.015Z,12.00
2019-03-23T08:58:31.590Z,9.83
2019-03-23T09:01:00.153Z,11.13
2019-03-23T09:03:29.341Z,10.83
2019-03-23T09:05:57.855Z,11.90
2019-03-23T09:08:26.970Z,9.97
2019-03-23T09:10:56.017Z,10.30
2019-03-23T09:13:25.255Z,11.93
2019-03-23T09:15:54.178Z,10.30
2019-03-23T09:18:22.853Z,11.67
2019-03-23T09:20:51.818Z,11.47
2019-03-23T09:23:20.425Z,10.43
2019-03-23T09:25:49.308Z,11.10
2019-03-23T09:28:17.913Z,11.73
2019-03-23T09:30:46.473Z,9.43
2019-03-23T09:33:15.182Z,12.37
2019-03-23T09:35:43.883Z,16.37
2019-03-23T09:38:12.507Z,16.47
2019-03-23T09:40:41.047Z,19.60
2019-03-23T09:43:10.036Z,18.00
2019-03-23T09:45:38.899Z,16.93
2019-03-23T09:48:07.760Z,15.40
2019-03-23T09:50:36.419Z,15.63
2019-03-23T09:53:05.177Z,14.43
2019-03-23T09:55:34.064Z,16.30
2019-03-23T09:58:02.799Z,13.03
2019-03-23T10:00:32.119Z,12.60
2019-03-23T10:03:00.888Z,13.07
2019-03-23T10:05:29.509Z,11.57
2019-03-23T10:07:58.485Z,11.77
2019-03-23T10:10:27.167Z,15.30
2019-03-23T10:12:56.137Z,14.47
2019-03-23T10:15:24.623Z,14.33
2019-03-23T10:17:53.604Z,13.43
2019-03-23T10:20:23.434Z,15.57
2019-03-23T10:22:52.687Z,12.63
2019-03-23T10:25:21.563Z,15.30
2019-03-23T10:27:50.330Z,15.17
2019-03-23T10:30:18.876Z,13.63
2019-03-23T10:32:47.537Z,15.07
2019-03-23T10:35:16.446Z,15.93
2019-03-23T10:37:45.502Z,14.40
2019-03-23T10:40:14.431Z,15.73
2019-03-23T10:42:43.561Z,16.13
2019-03-23T10:45:13.608Z,18.33
2019-03-23T10:47:42.354Z,17.33
2019-03-23T10:50:12.091Z,18.73
2019-03-23T10:52:40.808Z,16.97
2019-03-23T10:55:09.446Z,19.27
2019-03-23T10:57:38.270Z,21.70
2019-03-23T11:00:10.178Z,17.87
2019-03-23T11:02:39.204Z,20.27
2019-03-23T11:05:09.218Z,19.23
2019-03-23T11:07:38.177Z,20.60
2019-03-23T11:10:09.378Z,20.10
2019-03-23T11:12:37.958Z,16.97
2019-03-23T11:15:08.017Z,19.20
2019-03-23T11:17:36.669Z,17.73
2019-03-23T11:20:10.800Z,20.70
2019-03-23T11:22:39.544Z,17.80
2019-03-23T11:25:08.739Z,19.97
2019-03-23T11:27:37.250Z,16.90
2019-03-23T11:30:08.072Z,15.57
2019-03-23T11:32:36.931Z,17.47
2019-03-23T11:35:08.148Z,20.13
2019-03-23T11:37:37.479Z,20.83
2019-03-23T11:40:09.056Z,18.80
2019-03-23T11:42:37.916Z,20.00
2019-03-23T11:45:08.062Z,19.17
2019-03-23T11:47:36.945Z,22.17
2019-03-23T11:50:06.900Z,22.47
2019-03-23T11:52:36.135Z,23.07
2019-03-23T11:55:06.838Z,21.40
2019-03-23T11:57:35.746Z,20.63
2019-03-23T12:00:07.502Z,23.63
2019-03-23T12:02:36.407Z,21.03
2019-03-23T12:05:07.356Z,22.13
2019-03-23T12:07:36.457Z,21.93
2019-03-23T12:10:10.425Z,25.50
2019-03-23T12:12:39.084Z,19.77
2019-03-23T12:15:10.114Z,18.40
2019-03-23T12:17:38.775Z,20.63
2019-03-23T12:20:08.775Z,21.73
2019-03-23T12:22:37.713Z,16.90
2019-03-23T12:25:07.095Z,23.00
2019-03-23T12:27:35.701Z,18.77
2019-03-23T12:30:07.571Z,19.27
2019-03-23T12:32:36.371Z,17.27
2019-03-23T12:35:07.980Z,18.20
2019-03-23T12:37:36.904Z,18.20
2019-03-23T12:40:07.639Z,21.10
2019-03-23T12:42:36.539Z,18.67
2019-03-23T12:45:06.590Z,22.03
2019-03-23T12:47:35.495Z,19.13
2019-03-23T12:50:06.804Z,21.17
2019-03-23T12:52:35.840Z,20.23
2019-03-23T12:55:06.210Z,18.97
2019-03-23T12:57:34.827Z,20.03
2019-03-23T13:00:05.081Z,17.77
2019-03-23T13:02:33.847Z,22.60
2019-03-23T13:05:04.131Z,20.03
2019-03-23T13:07:32.954Z,19.70
2019-03-23T13:10:01.686Z,17.93
2019-03-23T13:12:30.362Z,19.83
2019-03-23T13:14:58.988Z,19.07
2019-03-23T13:17:27.445Z,19.80
2019-03-23T13:19:55.993Z,17.60
2019-03-23T13:22:24.726Z,18.27
2019-03-23T13:24:53.587Z,16.73
2019-03-23T13:27:22.469Z,18.07
2019-03-23T13:29:50.943Z,20.63
2019-03-23T13:32:19.853Z,20.83
2019-03-23T13:34:48.393Z,19.53
2019-03-23T13:37:16.979Z,20.03
2019-03-23T13:39:45.922Z,18.63
2019-03-23T13:42:14.703Z,22.20
2019-03-23T13:44:43.451Z,20.97
2019-03-23T13:47:12.252Z,21.23
2019-03-23T13:49:40.863Z,19.57
2019-03-23T13:52:09.460Z,20.37
2019-03-23T13:54:38.339Z,19.10
2019-03-23T13:57:06.883Z,19.53
2019-03-23T13:59:35.615Z,16.37
2019-03-23T14:02:04.733Z,18.20
2019-03-23T14:04:33.483Z,19.63
2019-03-23T14:07:02.434Z,19.33
2019-03-23T14:09:31.610Z,18.03
2019-03-23T14:12:00.243Z,18.70
2019-03-23T14:14:29.303Z,22.17
2019-03-23T14:16:57.986Z,19.17
2019-03-23T14:19:26.761Z,22.67
2019-03-23T14:21:55.516Z,20.80
2019-03-23T14:24:24.449Z,17.60
2019-03-23T14:26:53.009Z,16.23
2019-03-23T14:29:21.754Z,17.20
2019-03-23T14:31:50.444Z,19.10
2019-03-23T14:34:38.269Z,18.80
2019-03-23T14:37:06.850Z,17.30
2019-03-23T14:39:37.029Z,17.63
2019-03-23T14:42:05.790Z,18.00
2019-03-23T14:44:34.387Z,16.73
2019-03-23T14:47:03.072Z,15.87
2019-03-23T14:49:31.736Z,16.17
2019-03-23T14:52:00.666Z,19.63
2019-03-23T14:54:29.283Z,19.40
2019-03-23T14:57:01.735Z,17.00
2019-03-23T14:59:30.542Z,17.93
2019-03-23T15:01:59.266Z,19.90
2019-03-23T15:04:27.853Z,15.60
2019-03-23T15:06:56.590Z,22.00
2019-03-23T15:09:25.305Z,18.90
2019-03-23T15:11:54.247Z,16.60
2019-03-23T15:14:22.968Z,14.43
2019-03-23T15:16:51.655Z,13.80
2019-03-23T15:19:20.434Z,15.40
2019-03-23T15:21:49.384Z,15.13
2019-03-23T15:24:17.946Z,11.57
2019-03-23T15:26:46.808Z,12.00
2019-03-23T15:29:15.523Z,14.07
2019-03-23T15:31:44.080Z,14.07
2019-03-23T15:34:13.060Z,15.83
2019-03-23T15:36:42.094Z,12.57
2019-03-23T15:39:10.996Z,11.77
2019-03-23T15:41:40.254Z,15.27
2019-03-23T15:44:08.868Z,14.80
2019-03-23T15:46:37.936Z,16.10
2019-03-23T15:49:06.684Z,15.83
2019-03-23T15:51:35.390Z,13.63
2019-03-23T15:54:04.268Z,14.03
2019-03-23T15:56:33.150Z,15.20
2019-03-23T15:59:22.349Z,12.87
2019-03-23T16:01:50.843Z,12.73
2019-03-23T16:04:19.677Z,11.00
2019-03-23T16:06:48.299Z,16.97
2019-03-23T16:09:16.805Z,16.70
2019-03-23T16:11:45.662Z,18.33
2019-03-23T16:14:14.383Z,16.10
2019-03-23T16:16:43.016Z,12.80
2019-03-23T16:19:11.665Z,15.30
2019-03-23T16:21:40.518Z,15.00
2019-03-23T16:24:09.027Z,16.10
2019-03-23T16:26:38.075Z,14.53
2019-03-23T16:29:07.127Z,15.50
2019-03-23T16:31:36.097Z,15.00
2019-03-23T16:34:05.163Z,15.33
2019-03-23T16:36:33.899Z,15.13
2019-03-23T16:39:02.891Z,17.67
2019-03-23T16:41:32.255Z,16.03
2019-03-23T16:44:00.828Z,15.17
2019-03-23T16:46:29.653Z,15.03
2019-03-23T16:49:00.286Z,14.00
2019-03-23T16:51:29.078Z,14.47
2019-03-23T16:53:57.970Z,17.43
2019-03-23T16:56:26.838Z,15.00
2019-03-23T16:58:55.797Z,15.93
2019-03-23T17:01:36.487Z,14.80
2019-03-23T17:04:05.213Z,13.57
2019-03-23T17:06:45.844Z,12.80
2019-03-23T17:09:06.329Z,14.83
2019-03-23T17:11:35.153Z,50.83
2019-03-23T17:14:03.940Z,22.93
2019-03-23T17:16:32.774Z,15.10
2019-03-23T17:19:01.631Z,14.70
2019-03-23T17:21:30.210Z,15.90
2019-03-23T17:23:59.197Z,13.67
2019-03-23T17:26:27.981Z,15.27
2019-03-23T17:28:56.924Z,14.73
2019-03-23T17:31:25.646Z,14.00
2019-03-23T17:33:54.243Z,16.27
2019-03-23T17:36:22.805Z,18.03
2019-03-23T17:38:51.477Z,14.57
2019-03-23T17:41:20.097Z,14.93
2019-03-23T17:43:49.025Z,14.40
2019-03-23T17:46:17.735Z,15.17
2019-03-23T17:48:46.781Z,15.97
2019-03-23T17:51:15.616Z,13.07
2019-03-23T17:53:44.499Z,14.30
2019-03-23T17:56:13.365Z,14.70
2019-03-23T17:58:42.031Z,17.27
2019-03-23T18:01:19.263Z,14.50
2019-03-23T18:03:44.457Z,15.60
2019-03-23T18:06:13.070Z,14.73
2019-03-23T18:08:41.876Z,17.70
2019-03-23T18:11:10.535Z,14.33
2019-03-23T18:13:39.320Z,13.80
2019-03-23T18:16:08.224Z,14.50
2019-03-23T18:18:37.118Z,14.77
2019-03-23T18:21:05.844Z,14.43
2019-03-23T18:23:34.899Z,15.73
2019-03-23T18:26:03.796Z,15.60
2019-03-23T18:28:32.647Z,13.70
2019-03-23T18:31:01.339Z,15.40
2019-03-23T18:33:30.031Z,16.57
2019-03-23T18:35:58.751Z,15.97
2019-03-23T18:38:27.364Z,17.30
2019-03-23T18:40:55.971Z,16.47
2019-03-23T18:43:27.688Z,19.53
2019-03-23T18:45:55.450Z,19.33
2019-03-23T18:48:24.324Z,18.43
2019-03-23T18:50:53.164Z,15.77
2019-03-23T18:53:23.942Z,19.77
2019-03-23T18:55:52.368Z,19.77
2019-03-23T18:58:20.867Z,20.53
2019-03-23T19:00:49.716Z,20.40
2019-03-23T19:03:18.399Z,27.10
2019-03-23T19:05:47.063Z,31.53
2019-03-23T19:08:15.684Z,30.70
2019-03-23T19:10:44.291Z,31.00
2019-03-23T19:13:12.859Z,33.40
2019-03-23T19:15:41.634Z,37.00
2019-03-23T19:18:10.439Z,47.20
2019-03-23T19:20:39.066Z,42.33
2019-03-23T19:23:07.938Z,42.47
2019-03-23T19:25:36.572Z,41.33
2019-03-23T19:28:06.075Z,44.27
2019-03-23T19:30:35.053Z,44.97
2019-03-23T19:33:06.157Z,47.07
2019-03-23T19:35:34.591Z,45.47
2019-03-23T19:38:03.376Z,46.83
2019-03-23T19:40:31.925Z,48.90
2019-03-23T19:43:00.671Z,51.77
2019-03-23T19:45:29.342Z,46.37
2019-03-23T19:47:58.048Z,49.57
2019-03-23T19:50:26.827Z,46.87
2019-03-23T19:52:55.591Z,48.03
2019-03-23T19:55:24.184Z,39.57
2019-03-23T19:57:54.766Z,47.97
2019-03-23T20:00:23.357Z,48.77
2019-03-23T20:02:52.136Z,45.83
2019-03-23T20:05:21.024Z,47.90
2019-03-23T20:07:49.695Z,45.80
2019-03-23T20:10:18.758Z,42.90
2019-03-23T20:12:47.435Z,46.00
2019-03-23T20:15:16.554Z,48.73
2019-03-23T20:17:45.558Z,62.20
2019-03-23T20:20:15.924Z,50.57
2019-03-23T20:22:44.612Z,54.80
2019-03-23T20:25:13.748Z,53.87
2019-03-23T20:27:42.444Z,50.93
2019-03-23T20:30:13.331Z,61.73
2019-03-23T20:32:42.093Z,56.73
2019-03-23T20:35:11.071Z,54.07
2019-03-23T20:37:40.127Z,61.10
2019-03-23T20:40:10.683Z,54.40
2019-03-23T20:42:39.458Z,50.13
2019-03-23T20:45:09.718Z,49.97
2019-03-23T20:47:40.621Z,57.33
2019-03-23T20:50:10.355Z,58.93
2019-03-23T20:52:40.139Z,50.03
2019-03-23T20:55:14.717Z,52.53
2019-03-23T20:57:43.387Z,48.70
2019-03-23T21:00:12.294Z,51.43
2019-03-23T21:02:41.040Z,48.17
2019-03-23T21:05:09.817Z,56.10
2019-03-23T21:07:38.596Z,55.10
2019-03-23T21:10:07.735Z,50.80
2019-03-23T21:12:36.356Z,50.20
2019-03-23T21:15:06.821Z,53.63
2019-03-23T21:17:35.759Z,52.83
2019-03-23T21:20:06.259Z,59.43
2019-03-23T21:22:34.980Z,60.20
2019-03-23T21:25:04.768Z,49.33
2019-03-23T21:27:33.404Z,59.80
2019-03-23T21:30:01.937Z,64.77
2019-03-23T21:32:30.496Z,68.40
2019-03-23T21:34:59.101Z,62.90
2019-03-23T21:37:27.556Z,64.60
2019-03-23T21:39:56.356Z,62.73
2019-03-23T21:42:25.160Z,75.00
2019-03-23T21:44:53.822Z,65.30
2019-03-23T21:47:22.574Z,63.37
2019-03-23T21:49:51.133Z,63.67
2019-03-23T21:52:19.656Z,66.17
2019-03-23T21:54:48.176Z,62.90
2019-03-23T21:57:16.816Z,66.43
2019-03-23T21:59:45.309Z,60.27
2019-03-23T22:02:13.922Z,61.57
2019-03-23T22:04:42.611Z,66.73
2019-03-23T22:07:11.283Z,69.27
2019-03-23T22:09:40.159Z,69.80
2019-03-23T22:12:08.679Z,65.97
2019-03-23T22:14:41.590Z,66.73
2019-03-23T22:17:07.816Z,66.63
2019-03-23T22:19:36.376Z,63.83
2019-03-23T22:22:04.929Z,55.07
2019-03-23T22:24:33.557Z,53.57
2019-03-23T22:27:02.139Z,50.10
2019-03-23T22:29:30.817Z,56.77
2019-03-23T22:31:59.281Z,58.10
2019-03-23T22:34:27.885Z,68.57
2019-03-23T22:36:56.343Z,54.83
2019-03-23T22:39:24.938Z,61.73
2019-03-23T22:41:53.768Z,58.83
2019-03-23T22:44:22.312Z,59.20
2019-03-23T22:46:50.901Z,57.40
2019-03-23T22:49:19.480Z,51.97
2019-03-23T22:51:48.024Z,53.37
2019-03-23T22:54:16.732Z,48.83
2019-03-23T22:56:45.401Z,54.80
2019-03-23T22:59:15.445Z,52.00
2019-03-23T23:01:44.279Z,51.83
2019-03-23T23:04:13.119Z,56.40
2019-03-23T23:06:41.828Z,50.67
2019-03-23T23:09:10.763Z,46.20
2019-03-23T23:11:39.321Z,49.10
2019-03-23T23:14:07.969Z,51.97
2019-03-23T23:16:36.531Z,48.37
2019-03-23T23:19:05.451Z,53.77
2019-03-23T23:21:34.215Z,53.87
2019-03-23T23:24:02.698Z,44.27
2019-03-23T23:26:31.344Z,54.60
2019-03-23T23:29:00.179Z,51.00
2019-03-23T23:31:28.745Z,49.73
2019-03-23T23:33:57.282Z,51.33
2019-03-23T23:36:25.820Z,53.70
2019-03-23T23:38:54.369Z,52.27
2019-03-23T23:41:23.328Z,48.47
2019-03-23T23:43:51.959Z,47.77
2019-03-23T23:46:20.679Z,45.67
2019-03-23T23:48:51.424Z,44.00
2019-03-23T23:51:19.502Z,49.13
2019-03-23T23:53:48.119Z,51.63
2019-03-23T23:56:19.796Z,43.07
2019-03-23T23:58:48.740Z,43.30
